首页
METAR-TAF:

METAR-TAF

机场 :

通孔廷国际机场

德古斯加巴, 洪都拉斯

纬度: 14-03N, 经度: 087-13W, 海拔: 994米

当前天气观测

该预报发布于14分钟前的11:00 UTC
静风
温度 19°C
湿度 83%
气压 1019 hPa
能見度: 5000
少量云层高于1000英尺
多云层高于2600英尺

METAR: MHTG 111100Z 00000KT 9999 5000NW FEW010 BKN026 19/16 Q1019 A3009 NOSIG

时间: 05:14 (11:14 UTC)

预报

该预报发布于9小时和14分钟前的02:00 UTC
预报有效从11日的 06点(UTC)到 12日的 06点(UTC)
风速4节,风向
能见度10公里或以上
少量云层高于1200英尺
多云层高于2600英尺
成为
从 11日的 13点(UTC)到 11日的 15点(UTC)
风速8节,风向东转东北
少量云层高于2800英尺
散云层高于8000英尺
短暂存在
从 11日的 18点(UTC)到 12日的 00点(UTC)
能見度: 8000
多云层高于2800英尺, 塔状积云.
附近有阵雨
成为
从 12日的 01点(UTC)到 12日的 03点(UTC)
风速6节,风向
少量云层高于1200英尺
多云层高于2500英尺

TAF: MHTG 110200Z 1106/1206 36004KT 9999 FEW012 BKN026 TX26/1120Z TN16/1112Z BECMG 1113/1115 06008KT FEW028 SCT080 TEMPO 1118/1200 8000 VCSH BKN028TCU BECMG 1201/1203 36006KT FEW012 BKN025

超过4000个机场的气象观测和天气预报(METAR&TAF报告)。

可查询的气象台以黄色和红色小点在地图上表示。

将鼠标移到小点上方,可查看气象台名称。

然后点击查看天气观测和预报。

如需切换地图:点击带黑十字的绿色按钮放大地图;点击带横线的绿色按钮缩小地图;或者点击绿色箭头查看邻近地区的地图。


METAR-TAF: